Wetterdaten: Woche 25.10.04 - 31.10.04 (KW44)
Datum Zeit Temperatur Luftfeuchte Luftdruck Regenmenge Wind Richtung Taupunkt Windchill
25.10.2004 00:00 9.4 C 99 % 1014.6 hPa 0.0 l/m 0.1 km/h (0 Bft) O-SO 9.3 C 9.4 C
25.10.2004 01:00 9.3 C 100 % 1014.7 hPa 0.0 l/m 0.0 km/h (0 Bft) N 9.3 C 9.3 C
25.10.2004 02:00 9.2 C 100 % 1015.1 hPa 0.0 l/m 0.0 km/h (0 Bft) N 9.2 C 9.2 C
25.10.2004 03:00 9.5 C 100 % 1015.5 hPa 0.0 l/m 3.7 km/h (1 Bft) O-SO 9.5 C 9.1 C
25.10.2004 04:00 9.6 C 100 % 1014.6 hPa 0.0 l/m 0.7 km/h (0 Bft) O-SO 9.6 C 9.6 C
25.10.2004 05:00 9.8 C 100 % 1015.5 hPa 0.0 l/m 0.0 km/h (0 Bft) N 9.8 C 9.8 C
25.10.2004 06:00 10.3 C 100 % 1015.5 hPa 0.0 l/m 0.2 km/h (0 Bft) O 10.3 C 10.3 C
25.10.2004 07:00 10.7 C 100 % 1015.5 hPa 0.0 l/m 2.1 km/h (1 Bft) O-SO 10.7 C 10.7 C
25.10.2004 08:00 11.1 C 100 % 1015.5 hPa 0.0 l/m 0.0 km/h (0 Bft) N 11.1 C 11.1 C
25.10.2004 09:00 11.6 C 100 % 1016.2 hPa 0.0 l/m 0.1 km/h (0 Bft) N 11.6 C 11.6 C
25.10.2004 10:00 12.8 C 97 % 1016.2 hPa 0.0 l/m 1.1 km/h (0 Bft) O 12.4 C 12.8 C
25.10.2004 11:00 13.6 C 91 % 1015.9 hPa 0.0 l/m 1.1 km/h (1 Bft) O-SO 12.1 C 13.6 C
25.10.2004 12:00 14.3 C 85 % 1015.1 hPa 0.0 l/m 1.0 km/h (0 Bft) W-NW 11.9 C 14.3 C
25.10.2004 13:00 15.1 C 82 % 1014.9 hPa 0.0 l/m 5.0 km/h (1 Bft) W-NW 12.1 C 15.1 C
25.10.2004 14:00 15.0 C 84 % 1015.2 hPa 1.2 l/m 4.9 km/h (1 Bft) W-NW 12.4 C 15.0 C
25.10.2004 15:00 13.6 C 91 % 1015.1 hPa 0.3 l/m 1.2 km/h (1 Bft) O-SO 12.2 C 13.6 C
25.10.2004 16:00 13.1 C 89 % 1015.1 hPa 0.0 l/m 0.4 km/h (0 Bft) SO 11.3 C 13.1 C
25.10.2004 17:00 12.7 C 85 % 1014.9 hPa 0.0 l/m 3.7 km/h (1 Bft) O 10.2 C 12.7 C
25.10.2004 18:00 11.9 C 90 % 1015.3 hPa 0.6 l/m 2.4 km/h (1 Bft) O 10.3 C 11.9 C
25.10.2004 19:00 11.5 C 95 % 1014.3 hPa 2.2 l/m 1.4 km/h (1 Bft) O-SO 10.8 C 11.5 C
25.10.2004 20:00 11.2 C 98 % 1014.4 hPa 3.4 l/m 1.6 km/h (1 Bft) O-SO 10.8 C 11.2 C
25.10.2004 21:00 10.4 C 99 % 1013.9 hPa 0.9 l/m 5.9 km/h (2 Bft) O-SO 10.2 C 10.3 C
25.10.2004 22:00 10.2 C 99 % 1014.0 hPa 0.6 l/m 4.7 km/h (1 Bft) W-NW 10.0 C 10.1 C
25.10.2004 23:00 10.3 C 100 % 1015.5 hPa 1.5 l/m 2.9 km/h (1 Bft) NW 10.3 C 10.3 C
26.10.2004 00:00 10.4 C 100 % 1015.2 hPa 0.6 l/m 1.4 km/h (1 Bft) O-SO 10.4 C 10.4 C
26.10.2004 01:00 10.3 C 100 % 1014.7 hPa 1.2 l/m 2.2 km/h (1 Bft) O-SO 10.3 C 10.3 C
26.10.2004 02:00 10.1 C 100 % 1014.6 hPa 1.5 l/m 1.5 km/h (1 Bft) O-SO 10.1 C 10.1 C
26.10.2004 03:00 10.0 C 100 % 1013.3 hPa 0.9 l/m 0.0 km/h (0 Bft) N 10.0 C 10.0 C
26.10.2004 04:00 10.1 C 100 % 1012.4 hPa 0.3 l/m 0.0 km/h (0 Bft) N 10.1 C 10.1 C
26.10.2004 05:00 10.0 C 100 % 1011.5 hPa 0.0 l/m 0.0 km/h (0 Bft) N 10.0 C 10.0 C
26.10.2004 06:00 10.0 C 100 % 1012.4 hPa 2.8 l/m 1.9 km/h (1 Bft) NW 10.0 C 10.0 C
26.10.2004 07:00 9.8 C 100 % 1012.5 hPa 0.3 l/m 0.1 km/h (0 Bft) NO 9.8 C 9.8 C
26.10.2004 08:00 10.0 C 100 % 1012.5 hPa 0.3 l/m 0.0 km/h (0 Bft) N 10.0 C 10.0 C
26.10.2004 09:00 10.1 C 100 % 1012.8 hPa 0.3 l/m 0.0 km/h (0 Bft) N 10.1 C 10.1 C
26.10.2004 10:00 10.2 C 100 % 1013.2 hPa 0.9 l/m 0.0 km/h (0 Bft) N 10.2 C 10.2 C
26.10.2004 11:00 10.3 C 100 % 1013.5 hPa 0.6 l/m 0.0 km/h (0 Bft) N 10.3 C 10.3 C
26.10.2004 12:00 9.9 C 100 % 1013.5 hPa 0.0 l/m 1.4 km/h (1 Bft) O 9.9 C 9.9 C
26.10.2004 13:00 10.0 C 99 % 1013.5 hPa 0.9 l/m 0.0 km/h (0 Bft) N 9.9 C 10.0 C
26.10.2004 14:00 10.1 C 100 % 1013.6 hPa 0.6 l/m 0.0 km/h (0 Bft) N 10.1 C 10.1 C
26.10.2004 15:00 10.2 C 99 % 1013.5 hPa 0.9 l/m 0.0 km/h (0 Bft) N 10.1 C 10.2 C
26.10.2004 16:00 10.0 C 98 % 1012.5 hPa 0.3 l/m 1.4 km/h (1 Bft) W-NW 9.7 C 9.9 C
26.10.2004 17:00 9.5 C 98 % 1012.5 hPa 0.0 l/m 0.0 km/h (0 Bft) N 9.3 C 9.5 C
26.10.2004 18:00 8.9 C 99 % 1013.0 hPa 0.6 l/m 0.1 km/h (0 Bft) N 8.7 C 8.9 C
26.10.2004 19:00 8.9 C 99 % 1013.8 hPa 1.9 l/m 0.2 km/h (0 Bft) W-NW 8.8 C 8.9 C
26.10.2004 20:00 8.6 C 100 % 1014.3 hPa 0.9 l/m 0.0 km/h (0 Bft) N 8.6 C 8.6 C
26.10.2004 21:00 8.3 C 100 % 1014.1 hPa 1.2 l/m 0.0 km/h (0 Bft) N 8.3 C 8.3 C
26.10.2004 22:00 8.4 C 100 % 1014.6 hPa 0.3 l/m 0.0 km/h (0 Bft) N 8.4 C 8.4 C
26.10.2004 23:00 8.2 C 100 % 1013.9 hPa 1.2 l/m 0.0 km/h (0 Bft) N 8.2 C 8.2 C
27.10.2004 00:00 7.9 C 100 % 1013.7 hPa 0.9 l/m 0.0 km/h (0 Bft) N 7.9 C 7.9 C
27.10.2004 01:00 7.9 C 100 % 1013.4 hPa 0.9 l/m 0.5 km/h (0 Bft) W-NW 7.9 C 7.8 C
27.10.2004 02:00 7.6 C 100 % 1012.8 hPa 0.3 l/m 0.0 km/h (0 Bft) N 7.6 C 7.6 C
27.10.2004 03:00 7.5 C 100 % 1012.0 hPa 0.0 l/m 0.0 km/h (0 Bft) N 7.5 C 7.5 C
27.10.2004 04:00 7.1 C 100 % 1011.0 hPa 0.0 l/m 0.6 km/h (0 Bft) O-SO 7.1 C 7.0 C
27.10.2004 05:00 7.0 C 100 % 1010.8 hPa 0.0 l/m 0.0 km/h (0 Bft) N 7.0 C 7.0 C
27.10.2004 06:00 7.4 C 100 % 1009.9 hPa 0.0 l/m 0.0 km/h (0 Bft) N 7.4 C 7.4 C
27.10.2004 07:00 7.6 C 100 % 1009.7 hPa 0.0 l/m 1.8 km/h (1 Bft) O-SO 7.6 C 7.3 C
27.10.2004 08:00 7.7 C 100 % 1009.4 hPa 0.0 l/m 2.1 km/h (1 Bft) O-SO 7.7 C 7.4 C
27.10.2004 09:00 8.2 C 100 % 1009.0 hPa 0.0 l/m 0.0 km/h (0 Bft) N 8.2 C 8.2 C
27.10.2004 10:00 8.5 C 100 % 1008.5 hPa 0.0 l/m 0.1 km/h (0 Bft) O-NO 8.5 C 8.5 C
27.10.2004 11:00 9.1 C 99 % 1007.7 hPa 0.0 l/m 0.2 km/h (0 Bft) O-NO 9.0 C 9.1 C
27.10.2004 12:00 9.6 C 94 % 1007.3 hPa 0.0 l/m 0.0 km/h (0 Bft) N 8.7 C 9.6 C
27.10.2004 13:00 9.8 C 91 % 1007.3 hPa 0.0 l/m 0.0 km/h (0 Bft) N 8.4 C 9.8 C
27.10.2004 14:00 10.2 C 89 % 1006.6 hPa 0.0 l/m 0.8 km/h (0 Bft) O-NO 8.5 C 10.2 C
27.10.2004 15:00 10.3 C 88 % 1006.1 hPa 0.0 l/m 0.3 km/h (0 Bft) O-NO 8.5 C 10.3 C
27.10.2004 16:00 10.0 C 91 % 1005.2 hPa 0.0 l/m 0.0 km/h (0 Bft) N 8.6 C 10.0 C
27.10.2004 17:00 9.9 C 90 % 1004.9 hPa 0.0 l/m 0.1 km/h (0 Bft) N 8.4 C 9.9 C
27.10.2004 18:00 9.7 C 91 % 1004.3 hPa 0.0 l/m 0.0 km/h (0 Bft) N 8.2 C 9.7 C
27.10.2004 19:00 9.7 C 89 % 1004.2 hPa 0.0 l/m 0.0 km/h (0 Bft) N 7.9 C 9.7 C
27.10.2004 20:00 9.6 C 91 % 1004.2 hPa 0.0 l/m 0.0 km/h (0 Bft) N 8.2 C 9.6 C
27.10.2004 21:00 9.5 C 92 % 1004.2 hPa 0.0 l/m 0.0 km/h (0 Bft) N 8.3 C 9.5 C
27.10.2004 22:00 9.4 C 91 % 1004.2 hPa 0.0 l/m 1.1 km/h (1 Bft) NO 8.0 C 9.4 C
27.10.2004 23:00 9.5 C 92 % 1004.2 hPa 0.0 l/m 0.0 km/h (0 Bft) N 8.2 C 9.5 C
28.10.2004 00:00 9.5 C 94 % 1004.2 hPa 0.0 l/m 0.1 km/h (0 Bft) NO 8.5 C 9.5 C
28.10.2004 01:00 9.3 C 95 % 1004.2 hPa 0.0 l/m 0.5 km/h (0 Bft) O-NO 8.5 C 9.3 C
28.10.2004 02:00 9.1 C 95 % 1004.3 hPa 0.0 l/m 1.8 km/h (1 Bft) O-NO 8.3 C 9.0 C
28.10.2004 03:00 8.8 C 96 % 1004.2 hPa 0.3 l/m 1.0 km/h (0 Bft) O-SO 8.2 C 8.6 C
28.10.2004 04:00 8.7 C 98 % 1004.3 hPa 0.3 l/m 0.0 km/h (0 Bft) N 8.3 C 8.7 C
28.10.2004 05:00 8.7 C 98 % 1004.3 hPa 0.3 l/m 0.0 km/h (0 Bft) N 8.4 C 8.7 C
28.10.2004 06:00 8.7 C 99 % 1003.3 hPa 0.0 l/m 2.6 km/h (1 Bft) O-SO 8.6 C 8.3 C
28.10.2004 07:00 8.6 C 100 % 1003.5 hPa 0.0 l/m 2.2 km/h (1 Bft) O-SO 8.6 C 8.3 C
28.10.2004 08:00 8.7 C 99 % 1004.3 hPa 0.3 l/m 1.4 km/h (1 Bft) O-SO 8.6 C 8.6 C
28.10.2004 09:00 9.2 C 100 % 1004.5 hPa 0.6 l/m 0.0 km/h (0 Bft) N 9.2 C 9.2 C
28.10.2004 10:00 9.6 C 100 % 1004.2 hPa 0.3 l/m 0.0 km/h (0 Bft) N 9.6 C 9.6 C
28.10.2004 11:00 10.0 C 99 % 1004.1 hPa 0.0 l/m 0.0 km/h (0 Bft) N 9.9 C 10.0 C
28.10.2004 12:00 11.0 C 98 % 1003.9 hPa 0.0 l/m 0.0 km/h (0 Bft) N 10.6 C 11.0 C
28.10.2004 13:00 11.9 C 92 % 1002.8 hPa 0.0 l/m 1.5 km/h (1 Bft) NW 10.6 C 11.9 C
28.10.2004 14:00 12.5 C 89 % 1002.9 hPa 0.0 l/m 0.3 km/h (0 Bft) O-NO 10.7 C 12.5 C
28.10.2004 15:00 13.0 C 91 % 1002.3 hPa 0.0 l/m 0.2 km/h (0 Bft) O-NO 11.4 C 13.0 C
28.10.2004 16:00 13.1 C 90 % 1001.6 hPa 0.0 l/m 0.4 km/h (0 Bft) O 11.5 C 13.1 C
28.10.2004 17:00 12.4 C 93 % 1001.9 hPa 0.0 l/m 2.0 km/h (1 Bft) O 11.4 C 12.4 C
28.10.2004 18:00 11.7 C 92 % 1001.9 hPa 0.0 l/m 0.2 km/h (0 Bft) O-SO 10.4 C 11.7 C
28.10.2004 19:00 11.2 C 94 % 1001.9 hPa 0.0 l/m 1.0 km/h (0 Bft) O-SO 10.3 C 11.2 C
28.10.2004 20:00 10.4 C 96 % 1001.2 hPa 0.0 l/m 2.1 km/h (1 Bft) O 9.7 C 10.4 C
28.10.2004 21:00 9.6 C 98 % 1001.1 hPa 0.0 l/m 0.9 km/h (0 Bft) NO 9.2 C 9.5 C
28.10.2004 22:00 9.5 C 99 % 1001.1 hPa 0.0 l/m 2.4 km/h (1 Bft) O 9.4 C 9.2 C
28.10.2004 23:00 9.8 C 100 % 1001.5 hPa 0.0 l/m 0.8 km/h (0 Bft) O-NO 9.8 C 9.8 C
29.10.2004 00:00 9.9 C 100 % 1001.4 hPa 0.0 l/m 2.1 km/h (1 Bft) O-SO 9.9 C 9.7 C
29.10.2004 01:00 9.7 C 100 % 1001.6 hPa 0.0 l/m 3.9 km/h (1 Bft) O-SO 9.7 C 9.2 C
29.10.2004 02:00 9.3 C 100 % 1002.1 hPa 0.0 l/m 0.4 km/h (0 Bft) O-SO 9.3 C 9.3 C
29.10.2004 03:00 9.6 C 100 % 1002.3 hPa 0.3 l/m 0.3 km/h (0 Bft) O 9.6 C 9.6 C
29.10.2004 04:00 9.0 C 100 % 1002.0 hPa 0.0 l/m 4.9 km/h (1 Bft) O 9.0 C 8.4 C
29.10.2004 05:00 8.3 C 100 % 1002.3 hPa 0.0 l/m 0.9 km/h (0 Bft) O 8.3 C 8.2 C
29.10.2004 06:00 9.0 C 100 % 1002.2 hPa 0.0 l/m 0.7 km/h (0 Bft) O 9.0 C 9.0 C
29.10.2004 07:00 9.1 C 100 % 1002.2 hPa 0.0 l/m 1.2 km/h (1 Bft) O-SO 9.1 C 9.0 C
29.10.2004 08:00 9.0 C 100 % 1002.2 hPa 0.0 l/m 1.7 km/h (1 Bft) O-SO 9.0 C 8.8 C
29.10.2004 09:00 9.1 C 100 % 1003.1 hPa 0.0 l/m 1.2 km/h (1 Bft) O-SO 9.1 C 9.0 C
29.10.2004 10:00 9.2 C 100 % 1003.2 hPa 0.0 l/m 0.3 km/h (0 Bft) O-SO 9.2 C 9.2 C
29.10.2004 11:00 9.7 C 100 % 1003.1 hPa 0.0 l/m 0.3 km/h (0 Bft) O 9.7 C 9.7 C
29.10.2004 12:00 10.2 C 100 % 1003.1 hPa 0.0 l/m 0.2 km/h (0 Bft) N 10.1 C 10.2 C
29.10.2004 13:00 10.7 C 96 % 1003.0 hPa 0.0 l/m 1.0 km/h (0 Bft) O 10.1 C 10.7 C
29.10.2004 14:00 11.0 C 94 % 1003.0 hPa 0.0 l/m 0.3 km/h (0 Bft) O 10.1 C 11.0 C
29.10.2004 15:00 11.5 C 93 % 1002.5 hPa 0.0 l/m 0.6 km/h (0 Bft) O 10.5 C 11.5 C
29.10.2004 16:00 11.7 C 93 % 1001.8 hPa 0.0 l/m 0.2 km/h (0 Bft) O 10.6 C 11.7 C
29.10.2004 17:00 11.5 C 95 % 1001.9 hPa 0.0 l/m 0.0 km/h (0 Bft) N 10.7 C 11.5 C
29.10.2004 18:00 11.0 C 91 % 1001.9 hPa 0.0 l/m 0.0 km/h (0 Bft) N 9.6 C 11.0 C
29.10.2004 19:00 10.2 C 95 % 1002.0 hPa 0.0 l/m 0.3 km/h (0 Bft) O 9.4 C 10.2 C
29.10.2004 20:00 9.5 C 97 % 1001.9 hPa 0.0 l/m 0.0 km/h (0 Bft) N 9.0 C 9.5 C
29.10.2004 21:00 9.4 C 98 % 1001.4 hPa 0.0 l/m 0.1 km/h (0 Bft) O 9.2 C 9.4 C
29.10.2004 22:00 9.7 C 99 % 1001.7 hPa 0.0 l/m 0.3 km/h (0 Bft) O 9.6 C 9.7 C
29.10.2004 23:00 9.5 C 100 % 1001.1 hPa 0.0 l/m 0.5 km/h (0 Bft) SO 9.5 C 9.5 C
30.10.2004 00:00 9.0 C 100 % 1001.2 hPa 0.0 l/m 3.1 km/h (1 Bft) O-SO 9.0 C 8.6 C
30.10.2004 01:00 8.8 C 100 % 1001.2 hPa 0.0 l/m 0.9 km/h (0 Bft) O-SO 8.8 C 8.8 C
30.10.2004 02:00 9.0 C 100 % 1001.9 hPa 0.0 l/m 0.5 km/h (0 Bft) O-SO 9.0 C 9.0 C
30.10.2004 03:00 9.1 C 100 % 1002.5 hPa 0.6 l/m 5.6 km/h (1 Bft) O-SO 9.1 C 8.3 C
30.10.2004 04:00 9.1 C 100 % 1002.6 hPa 0.0 l/m 3.2 km/h (1 Bft) NW 9.1 C 8.7 C
30.10.2004 05:00 9.6 C 100 % 1003.8 hPa 0.0 l/m 5.4 km/h (1 Bft) O-SO 9.6 C 9.0 C
30.10.2004 06:00 9.6 C 100 % 1005.2 hPa 0.3 l/m 2.0 km/h (1 Bft) NW 9.6 C 9.4 C
30.10.2004 07:00 8.8 C 100 % 1006.4 hPa 0.0 l/m 4.3 km/h (1 Bft) O-SO 8.8 C 8.2 C
30.10.2004 08:00 8.5 C 100 % 1007.1 hPa 0.0 l/m 2.3 km/h (1 Bft) O-SO 8.5 C 8.2 C
30.10.2004 09:00 9.5 C 99 % 1007.8 hPa 0.0 l/m 1.1 km/h (1 Bft) SO 9.5 C 9.5 C
30.10.2004 10:00 10.3 C 90 % 1008.3 hPa 0.0 l/m 6.7 km/h (2 Bft) O-SO 8.8 C 10.3 C
30.10.2004 11:00 11.6 C 81 % 1009.1 hPa 0.0 l/m 3.5 km/h (1 Bft) O-SO 8.5 C 11.6 C
30.10.2004 12:00 13.0 C 72 % 1008.9 hPa 0.0 l/m 2.7 km/h (1 Bft) O-SO 8.0 C 13.0 C
30.10.2004 13:00 13.1 C 69 % 1008.9 hPa 0.0 l/m 0.7 km/h (0 Bft) W-NW 7.6 C 13.1 C
30.10.2004 14:00 13.0 C 68 % 1008.9 hPa 0.0 l/m 0.5 km/h (0 Bft) N 7.2 C 13.0 C
30.10.2004 15:00 13.8 C 63 % 1009.8 hPa 0.0 l/m 4.8 km/h (1 Bft) W-NW 6.7 C 13.8 C
30.10.2004 16:00 14.2 C 59 % 1009.8 hPa 0.0 l/m 2.8 km/h (1 Bft) W 6.3 C 14.2 C
30.10.2004 17:00 12.7 C 67 % 1010.4 hPa 0.0 l/m 0.8 km/h (0 Bft) W-NW 6.7 C 12.7 C
30.10.2004 18:00 10.7 C 78 % 1011.5 hPa 0.0 l/m 5.1 km/h (1 Bft) O-SO 7.0 C 10.6 C
30.10.2004 19:00 8.9 C 86 % 1012.6 hPa 0.0 l/m 4.7 km/h (1 Bft) O-SO 6.8 C 8.3 C
30.10.2004 20:00 7.6 C 93 % 1013.8 hPa 0.0 l/m 2.2 km/h (1 Bft) O 6.5 C 7.4 C
30.10.2004 21:00 6.7 C 95 % 1014.0 hPa 0.0 l/m 0.7 km/h (0 Bft) O 5.9 C 6.6 C
30.10.2004 22:00 6.0 C 97 % 1014.8 hPa 0.0 l/m 0.2 km/h (0 Bft) N 5.6 C 6.0 C
30.10.2004 23:00 5.1 C 98 % 1015.2 hPa 0.0 l/m 0.0 km/h (0 Bft) N 4.8 C 5.1 C
31.10.2004 00:00 4.7 C 99 % 1015.3 hPa 0.0 l/m 0.0 km/h (0 Bft) N 4.5 C 4.7 C
31.10.2004 01:00 4.2 C 99 % 1015.4 hPa 0.0 l/m 0.0 km/h (0 Bft) N 4.1 C 4.2 C
31.10.2004 02:00 3.7 C 100 % 1015.4 hPa 0.0 l/m 0.1 km/h (0 Bft) O-SO 3.7 C 3.7 C
31.10.2004 03:00 3.9 C 100 % 1015.4 hPa 0.0 l/m 1.2 km/h (1 Bft) O-SO 3.9 C 3.8 C
31.10.2004 04:00 4.0 C 100 % 1015.2 hPa 0.0 l/m 0.2 km/h (0 Bft) O-SO 4.0 C 4.0 C
31.10.2004 05:00 4.2 C 100 % 1014.3 hPa 0.0 l/m 0.1 km/h (0 Bft) N 4.2 C 4.2 C
31.10.2004 06:00 4.3 C 100 % 1014.2 hPa 0.0 l/m 0.0 km/h (0 Bft) N 4.3 C 4.3 C
31.10.2004 07:00 4.6 C 100 % 1013.3 hPa 0.0 l/m 0.2 km/h (0 Bft) O 4.6 C 4.6 C
31.10.2004 08:00 5.9 C 100 % 1013.0 hPa 0.0 l/m 0.0 km/h (0 Bft) N 5.9 C 5.9 C
31.10.2004 09:00 8.0 C 99 % 1012.7 hPa 0.0 l/m 0.0 km/h (0 Bft) N 7.9 C 8.0 C
31.10.2004 10:00 11.5 C 83 % 1011.3 hPa 0.0 l/m 5.5 km/h (1 Bft) O-NO 8.6 C 11.5 C
31.10.2004 11:00 12.8 C 68 % 1011.0 hPa 0.0 l/m 13.1 km/h (3 Bft) NO 7.1 C 12.8 C
31.10.2004 12:00 13.9 C 65 % 1010.9 hPa 0.0 l/m 10.6 km/h (2 Bft) O 7.4 C 13.9 C
31.10.2004 13:00 14.3 C 64 % 1010.8 hPa 0.0 l/m 7.9 km/h (2 Bft) NO 7.5 C 14.3 C
31.10.2004 14:00 13.6 C 65 % 1011.3 hPa 0.0 l/m 5.9 km/h (2 Bft) N-NO 7.1 C 13.6 C
31.10.2004 15:00 13.1 C 67 % 1012.0 hPa 0.0 l/m 5.2 km/h (1 Bft) O-NO 7.1 C 13.1 C
31.10.2004 16:00 12.7 C 68 % 1012.7 hPa 0.0 l/m 2.4 km/h (1 Bft) O-SO 7.0 C 12.7 C
31.10.2004 17:00 12.2 C 71 % 1013.5 hPa 0.0 l/m 4.9 km/h (1 Bft) O-SO 7.1 C 12.2 C
31.10.2004 18:00 11.9 C 73 % 1014.3 hPa 0.0 l/m 2.7 km/h (1 Bft) O 7.1 C 11.9 C
31.10.2004 19:00 11.7 C 74 % 1014.3 hPa 0.0 l/m 7.8 km/h (2 Bft) O 7.1 C 11.7 C
31.10.2004 20:00 11.1 C 78 % 1014.9 hPa 0.0 l/m 2.0 km/h (1 Bft) NO 7.5 C 11.1 C
31.10.2004 21:00 10.3 C 85 % 1015.2 hPa 0.0 l/m 1.2 km/h (1 Bft) N-NO 7.9 C 10.3 C
31.10.2004 22:00 10.3 C 85 % 1015.1 hPa 0.0 l/m 2.4 km/h (1 Bft) O 7.9 C 10.3 C
31.10.2004 23:00 10.4 C 82 % 1014.5 hPa 0.0 l/m 0.4 km/h (0 Bft) N-NO 7.5 C 10.4 C
Min-Datum _ 31.10.04 30.10.04 28.10.04 - 25.10.04 - 31.10.04 31.10.04
_ Min-Zeit 02:41 16:14 17:05 - 00:02 - 02:41 03:20
Minimum _ 3.3 C 57 % 1000.6 hPa - 0.0 km/h (0 Bft) - 3.3 C 3.0 C
Max-Datum _ 25.10.04 25.10.04 25.10.04 25.10.04 31.10.04 - 25.10.04 25.10.04
_ Max-Zeit 13:59 01:14 08:50 19:00 12:14 - 11:05 13:59
Maximum _ 15.5 C 100 % 1016.5 hPa 3.4 l/m 28.6 km/h
O (4 Bft)
- 13.4 C 15.5 C
Durchschnitt _ 9.9 C 94 % 1009.1 hPa #35.3 l/m 1.4 km/h (1 Bft) O-SO 8.8 C 9.8 C

Durchschnitt Minimum Temp.9.5 C
Durchschnitt Maximum Temp.10.3 C
© Kaiko 2004